Time;durP1;ratioP1;P1;durP2;ratioP2;P2;SDS_P1;SDS_P2;PMS_P1;PMS_P2;Temp;Humidity;BMP_temperature;BMP_pressure;BME280_temperature;BME280_humidity;BME280_pressure;Samples;Min_cycle;Max_cycle;Signal;HPM_P1;HPM_P2
2023/01/31 00:01:10;;;;;;;22.50;2.72;;;3.10;99.90;;;;;;5102921;27;20034;-69
2023/01/31 00:03:38;;;;;;;29.95;3.00;;;3.00;99.90;;;;;;5099124;27;20031;-69
2023/01/31 00:06:17;;;;;;;28.77;3.33;;;3.00;99.90;;;;;;5085735;27;20153;-69
2023/01/31 00:08:44;;;;;;;22.90;2.70;;;3.10;99.90;;;;;;5102716;27;20047;-69
2023/01/31 00:11:10;;;;;;;32.42;3.88;;;3.10;99.90;;;;;;5096246;27;20039;-69
2023/01/31 00:13:36;;;;;;;28.40;4.13;;;3.00;99.90;;;;;;5100066;27;20482;-69
2023/01/31 00:16:02;;;;;;;33.17;4.35;;;3.00;99.90;;;;;;5087517;27;20031;-69
2023/01/31 00:18:28;;;;;;;23.08;3.33;;;2.90;99.90;;;;;;5100063;27;20047;-69
2023/01/31 00:20:53;;;;;;;21.13;3.65;;;2.90;99.90;;;;;;5099230;27;20050;-70
2023/01/31 00:23:19;;;;;;;18.83;2.50;;;2.80;99.90;;;;;;5103358;27;20039;-68
2023/01/31 00:25:45;;;;;;;24.25;2.80;;;2.90;99.90;;;;;;5099762;27;20039;-69
2023/01/31 00:28:10;;;;;;;31.08;3.53;;;2.90;99.90;;;;;;5102960;27;20031;-69
2023/01/31 00:30:36;;;;;;;28.67;2.92;;;2.90;99.90;;;;;;5104564;27;20027;-69
2023/01/31 00:33:01;;;;;;;16.23;3.03;;;2.90;99.90;;;;;;5099116;27;20138;-69
2023/01/31 00:35:27;;;;;;;25.77;3.13;;;2.90;99.90;;;;;;5101717;27;20078;-69
2023/01/31 00:37:53;;;;;;;24.50;3.30;;;2.90;99.90;;;;;;5103381;27;20288;-69
2023/01/31 00:40:19;;;;;;;29.30;3.13;;;2.80;99.90;;;;;;5101966;27;20545;-69
2023/01/31 00:42:45;;;;;;;25.38;3.40;;;2.90;99.90;;;;;;5101803;27;20511;-69
2023/01/31 00:45:11;;;;;;;21.50;3.13;;;2.80;99.90;;;;;;5101187;27;20142;-69
2023/01/31 00:47:36;;;;;;;24.88;2.97;;;2.70;99.90;;;;;;5100973;27;20397;-69
2023/01/31 00:50:03;;;;;;;18.75;2.50;;;2.80;99.90;;;;;;5099631;27;20043;-69
2023/01/31 00:52:28;;;;;;;28.02;3.63;;;2.60;99.90;;;;;;5098669;27;20046;-69
2023/01/31 00:54:54;;;;;;;24.42;2.92;;;2.50;99.90;;;;;;5104175;27;20039;-70
2023/01/31 00:57:19;;;;;;;24.80;3.13;;;2.50;99.90;;;;;;5103124;27;21411;-69
2023/01/31 00:59:45;;;;;;;33.05;3.45;;;2.40;99.90;;;;;;5118536;27;20043;-69
2023/01/31 01:02:11;;;;;;;27.45;2.92;;;2.50;99.90;;;;;;5100766;27;20038;-69
2023/01/31 01:04:36;;;;;;;33.65;3.40;;;2.50;99.90;;;;;;5102172;28;20035;-70
2023/01/31 01:07:02;;;;;;;26.42;3.38;;;2.40;99.90;;;;;;5101832;27;20062;-69
2023/01/31 01:09:27;;;;;;;25.35;2.88;;;2.40;99.90;;;;;;5102949;27;20378;-69
2023/01/31 01:11:53;;;;;;;19.27;2.35;;;2.50;99.90;;;;;;5101204;27;20081;-69
2023/01/31 01:14:19;;;;;;;22.52;2.85;;;2.50;99.90;;;;;;5097367;27;20095;-70
2023/01/31 01:16:45;;;;;;;27.98;3.53;;;2.40;99.90;;;;;;5100577;27;20031;-69
2023/01/31 01:19:18;;;;;;;19.40;2.90;;;2.50;99.90;;;;;;5103733;27;20046;-69
2023/01/31 01:21:44;;;;;;;20.92;2.67;;;2.50;99.90;;;;;;5097945;27;20051;-69
2023/01/31 01:24:16;;;;;;;26.83;3.60;;;2.40;99.90;;;;;;5086484;27;20389;-70
2023/01/31 01:26:43;;;;;;;22.25;3.05;;;2.50;99.90;;;;;;5100204;27;20028;-69
2023/01/31 01:29:09;;;;;;;19.02;2.75;;;2.50;99.90;;;;;;5101546;27;20040;-69
2023/01/31 01:31:37;;;;;;;29.67;3.75;;;2.60;99.90;;;;;;5096202;27;20039;-69
2023/01/31 01:34:10;;;;;;;18.10;2.92;;;2.70;99.90;;;;;;5099578;28;20069;-69
2023/01/31 01:36:36;;;;;;;24.95;3.00;;;2.80;99.90;;;;;;5103677;28;20047;-69
2023/01/31 01:39:04;;;;;;;23.17;2.97;;;2.80;99.90;;;;;;5099370;27;20041;-70
2023/01/31 01:41:34;;;;;;;19.33;2.25;;;2.90;99.90;;;;;;5101160;28;20042;-69
2023/01/31 01:44:01;;;;;;;20.27;2.40;;;2.90;99.90;;;;;;5100137;28;20520;-69
2023/01/31 01:46:32;;;;;;;20.05;2.67;;;2.90;99.90;;;;;;5100276;28;20036;-70
2023/01/31 01:49:18;;;;;;;13.07;2.10;;;2.90;99.90;;;;;;5098947;28;20426;-70
2023/01/31 01:51:46;;;;;;;19.13;2.72;;;2.90;99.90;;;;;;5088190;27;20701;-69
2023/01/31 01:54:22;;;;;;;20.65;2.67;;;3.00;99.90;;;;;;5098855;27;20046;-70
2023/01/31 01:56:52;;;;;;;23.10;2.75;;;2.90;99.90;;;;;;5101196;27;20062;-70
2023/01/31 01:59:22;;;;;;;17.73;2.88;;;2.80;99.90;;;;;;5102426;28;20039;-69
2023/01/31 02:01:48;;;;;;;25.27;2.65;;;2.90;99.90;;;;;;5093524;27;20040;-69
2023/01/31 02:04:19;;;;;;;21.48;2.25;;;2.90;99.90;;;;;;5097954;28;20087;-70
2023/01/31 02:06:45;;;;;;;26.88;2.58;;;2.80;99.90;;;;;;5099186;28;20064;-69
2023/01/31 02:09:21;;;;;;;19.05;2.47;;;2.80;99.90;;;;;;5094704;28;20031;-69
2023/01/31 02:11:47;;;;;;;23.73;2.65;;;2.80;99.90;;;;;;5097645;28;20050;-69
2023/01/31 02:14:14;;;;;;;21.15;2.83;;;2.90;99.90;;;;;;5101580;28;20039;-69
2023/01/31 02:16:39;;;;;;;18.05;2.75;;;2.90;99.90;;;;;;5097327;28;20045;-70
2023/01/31 02:19:28;;;;;;;26.80;2.53;;;2.90;99.90;;;;;;5097131;27;20052;-70
2023/01/31 02:22:17;;;;;;;16.55;2.22;;;2.90;99.90;;;;;;5099142;27;20058;-70
2023/01/31 02:25:07;;;;;;;21.98;3.92;;;3.00;99.90;;;;;;5099704;27;20130;-71
2023/01/31 02:28:11;;;;;;;14.88;2.50;;;3.00;99.90;;;;;;5102681;28;20374;-70
2023/01/31 02:31:21;;;;;;;21.10;2.42;;;3.10;99.90;;;;;;5099276;27;20035;-70
2023/01/31 02:34:11;;;;;;;22.30;2.72;;;3.10;99.90;;;;;;5075387;28;20074;-70
2023/01/31 02:36:51;;;;;;;19.50;2.45;;;3.10;99.90;;;;;;5099442;27;20481;-70
2023/01/31 02:39:39;;;;;;;22.35;2.58;;;3.10;99.90;;;;;;5099213;28;20123;-69
2023/01/31 02:42:47;;;;;;;18.88;2.90;;;3.20;99.90;;;;;;5100255;27;20378;-70
2023/01/31 02:45:43;;;;;;;21.58;2.88;;;3.10;99.90;;;;;;5102139;28;20039;-70
2023/01/31 02:48:38;;;;;;;20.83;2.72;;;3.20;99.90;;;;;;5100927;27;20516;-70
2023/01/31 02:51:18;;;;;;;24.13;2.50;;;3.20;99.90;;;;;;5087442;27;20062;-70
2023/01/31 02:53:52;;;;;;;17.35;2.58;;;3.20;99.90;;;;;;5101433;27;20555;-69
2023/01/31 02:56:29;;;;;;;22.83;2.80;;;3.20;99.90;;;;;;5103037;27;20385;-70
2023/01/31 02:59:00;;;;;;;20.92;2.42;;;3.30;99.90;;;;;;5097886;27;20051;-70
2023/01/31 03:01:29;;;;;;;21.05;3.20;;;3.30;99.90;;;;;;5104098;27;20050;-70
2023/01/31 03:04:01;;;;;;;16.95;2.70;;;3.20;99.90;;;;;;5099956;27;20135;-70
2023/01/31 03:06:27;;;;;;;19.63;2.50;;;3.30;99.90;;;;;;5101024;27;20551;-69
2023/01/31 03:09:06;;;;;;;22.30;2.60;;;3.30;99.90;;;;;;5086360;27;20047;-70
2023/01/31 03:11:44;;;;;;;18.75;2.47;;;3.30;99.90;;;;;;5102548;27;20399;-71
2023/01/31 03:14:23;;;;;;;14.98;3.35;;;3.30;99.90;;;;;;5103113;27;20036;-69
2023/01/31 03:20:13;;;;;;;21.85;3.10;;;3.40;99.90;;;;;;5101612;27;20047;-69
2023/01/31 03:22:44;;;;;;;20.33;2.72;;;3.50;99.90;;;;;;5103377;27;20054;-70
2023/01/31 03:25:15;;;;;;;21.13;2.60;;;3.50;99.90;;;;;;5109791;27;20046;-69
2023/01/31 03:27:47;;;;;;;24.55;2.60;;;3.60;99.90;;;;;;5098500;27;20047;-69
2023/01/31 03:30:19;;;;;;;22.57;2.90;;;3.60;99.90;;;;;;5102036;27;20046;-69
2023/01/31 03:32:52;;;;;;;26.98;2.95;;;3.60;99.90;;;;;;5100669;27;20510;-70
2023/01/31 03:35:21;;;;;;;16.88;3.03;;;3.60;99.90;;;;;;5102010;27;20467;-69
2023/01/31 03:37:55;;;;;;;16.75;3.08;;;3.70;99.90;;;;;;5101473;27;20043;-70
2023/01/31 03:40:37;;;;;;;15.23;2.38;;;3.70;99.90;;;;;;5105337;27;20043;-68
2023/01/31 03:43:16;;;;;;;18.37;2.90;;;3.70;99.90;;;;;;5104187;27;20043;-69
2023/01/31 03:45:50;;;;;;;18.27;3.05;;;3.60;99.90;;;;;;5105160;27;20039;-69
2023/01/31 03:48:17;;;;;;;22.75;3.22;;;3.70;99.90;;;;;;5103928;27;20046;-68
2023/01/31 03:50:57;;;;;;;14.55;2.63;;;3.80;99.90;;;;;;5105098;27;20047;-69
2023/01/31 03:53:58;;;;;;;19.63;2.72;;;3.80;99.90;;;;;;5091080;27;20043;-70
2023/01/31 03:56:37;;;;;;;24.65;3.50;;;3.80;99.90;;;;;;5106381;27;20046;-69
2023/01/31 03:59:08;;;;;;;24.05;3.60;;;3.90;99.90;;;;;;5115228;27;20039;-68
2023/01/31 04:01:38;;;;;;;16.20;2.72;;;3.90;99.90;;;;;;5103239;27;20074;-69
2023/01/31 04:04:22;;;;;;;27.00;3.53;;;3.90;99.90;;;;;;5107429;27;20078;-69
2023/01/31 04:06:48;;;;;;;23.73;3.83;;;3.90;99.90;;;;;;5106313;27;20039;-70
2023/01/31 04:09:13;;;;;;;20.55;3.10;;;3.90;99.90;;;;;;5106473;27;20031;-69
2023/01/31 04:11:41;;;;;;;23.58;3.40;;;3.90;99.90;;;;;;5097860;27;20108;-70
2023/01/31 04:14:08;;;;;;;22.75;3.20;;;3.90;99.90;;;;;;5101762;27;20091;-68
2023/01/31 04:16:34;;;;;;;27.52;4.00;;;3.90;99.90;;;;;;5104579;27;20051;-70
2023/01/31 04:18:59;;;;;;;18.52;3.47;;;4.00;99.90;;;;;;5113090;27;20077;-68
2023/01/31 04:21:25;;;;;;;25.05;3.65;;;4.00;99.90;;;;;;5096416;27;20552;-68
2023/01/31 04:23:51;;;;;;;23.95;3.75;;;4.10;99.90;;;;;;5100819;27;20047;-69
2023/01/31 04:26:16;;;;;;;25.23;4.05;;;4.10;99.90;;;;;;5101449;27;20072;-68
2023/01/31 04:28:42;;;;;;;26.58;3.60;;;4.10;99.90;;;;;;5088833;27;20046;-69
2023/01/31 04:31:08;;;;;;;21.65;3.55;;;4.10;99.90;;;;;;5101204;27;20076;-67
2023/01/31 04:33:34;;;;;;;25.63;4.07;;;4.30;99.90;;;;;;5103477;27;20043;-69
2023/01/31 04:36:00;;;;;;;27.83;3.95;;;4.30;99.90;;;;;;5103215;27;20497;-68
2023/01/31 04:38:25;;;;;;;19.63;3.65;;;4.40;99.90;;;;;;5102956;27;20130;-67
2023/01/31 04:40:51;;;;;;;27.67;4.50;;;4.40;99.90;;;;;;5104277;27;20385;-67
2023/01/31 04:43:16;;;;;;;21.75;3.65;;;4.40;99.90;;;;;;5100882;27;20054;-68
2023/01/31 04:45:42;;;;;;;28.85;4.07;;;4.40;99.90;;;;;;5089971;27;20059;-68
2023/01/31 04:48:07;;;;;;;27.13;4.40;;;4.40;99.90;;;;;;5121121;27;20036;-68
2023/01/31 04:50:34;;;;;;;24.05;4.53;;;4.40;99.90;;;;;;5102119;27;20288;-68
2023/01/31 04:53:00;;;;;;;24.88;5.13;;;4.40;99.90;;;;;;5101666;27;21919;-68
2023/01/31 04:55:26;;;;;;;24.52;5.22;;;4.40;99.90;;;;;;5101502;27;20134;-70
2023/01/31 04:57:52;;;;;;;21.02;4.63;;;4.50;99.90;;;;;;5103889;27;20036;-67
2023/01/31 05:00:18;;;;;;;32.55;5.22;;;4.50;99.90;;;;;;5102412;27;20061;-67
2023/01/31 05:02:44;;;;;;;19.73;4.95;;;4.60;99.90;;;;;;5099804;27;20122;-68
2023/01/31 05:05:11;;;;;;;35.95;5.40;;;4.60;99.90;;;;;;5100022;27;20047;-69
2023/01/31 05:07:38;;;;;;;31.75;5.55;;;4.50;99.90;;;;;;5098510;27;20489;-67
2023/01/31 05:10:04;;;;;;;27.60;5.13;;;4.50;99.90;;;;;;5100055;27;20113;-68
2023/01/31 05:12:30;;;;;;;26.13;5.45;;;4.50;99.90;;;;;;5093866;27;20038;-68
2023/01/31 05:14:55;;;;;;;24.50;5.07;;;4.50;99.90;;;;;;5100328;27;20480;-66
2023/01/31 05:17:28;;;;;;;34.47;5.57;;;4.50;99.90;;;;;;5111236;27;20104;-69
2023/01/31 05:19:56;;;;;;;32.42;6.10;;;4.40;99.90;;;;;;5100846;27;20047;-68
2023/01/31 05:22:22;;;;;;;30.15;5.97;;;4.40;99.90;;;;;;5099798;27;20047;-69
2023/01/31 05:24:49;;;;;;;34.30;6.53;;;4.40;99.90;;;;;;5103283;27;20127;-69
2023/01/31 05:27:15;;;;;;;37.38;7.10;;;4.60;99.90;;;;;;5100494;27;20042;-69
2023/01/31 05:29:41;;;;;;;26.38;5.97;;;4.50;99.90;;;;;;5103440;27;20126;-69
2023/01/31 05:32:07;;;;;;;36.95;6.93;;;4.50;99.90;;;;;;5105792;27;20152;-67
2023/01/31 05:34:33;;;;;;;40.45;7.68;;;4.50;99.90;;;;;;5104595;27;20101;-69
2023/01/31 05:36:59;;;;;;;33.65;7.07;;;4.50;99.90;;;;;;5102631;27;20039;-68
2023/01/31 05:39:25;;;;;;;37.17;7.40;;;4.50;99.90;;;;;;5103856;27;20035;-68
2023/01/31 05:41:54;;;;;;;38.95;8.52;;;4.60;99.90;;;;;;5106552;27;20031;-68
2023/01/31 05:44:20;;;;;;;38.80;7.82;;;4.60;99.90;;;;;;5106658;27;20043;-67
2023/01/31 05:46:46;;;;;;;38.97;8.32;;;4.60;99.90;;;;;;5100613;27;20039;-69
2023/01/31 05:49:12;;;;;;;34.38;7.28;;;4.60;99.90;;;;;;5092549;27;20046;-68
2023/01/31 05:51:38;;;;;;;40.95;8.23;;;4.70;99.90;;;;;;5123112;27;20035;-67
2023/01/31 05:54:04;;;;;;;34.53;7.60;;;4.80;99.90;;;;;;5107553;27;20122;-67
2023/01/31 05:56:30;;;;;;;38.33;8.50;;;4.80;99.90;;;;;;5107202;27;20565;-67
2023/01/31 05:58:55;;;;;;;45.13;9.88;;;4.80;99.90;;;;;;5106594;27;20148;-67
2023/01/31 06:01:24;;;;;;;41.88;9.65;;;4.80;99.90;;;;;;5122279;27;20043;-69
2023/01/31 06:03:50;;;;;;;49.60;10.02;;;4.80;99.90;;;;;;5107502;27;20114;-67
2023/01/31 06:06:16;;;;;;;49.75;10.57;;;4.90;99.90;;;;;;5102522;28;20122;-67
2023/01/31 06:08:41;;;;;;;47.70;8.70;;;4.90;99.90;;;;;;5104372;27;20045;-68
2023/01/31 06:11:10;;;;;;;38.63;9.93;;;4.80;99.90;;;;;;5087369;27;20512;-68
2023/01/31 06:13:36;;;;;;;40.78;10.20;;;4.90;99.90;;;;;;5107450;27;20040;-66
2023/01/31 06:16:03;;;;;;;42.47;8.90;;;4.90;99.90;;;;;;5101773;27;20040;-68
2023/01/31 06:18:28;;;;;;;47.95;9.75;;;5.00;99.90;;;;;;5111306;27;20425;-68
2023/01/31 06:20:54;;;;;;;48.00;9.52;;;5.10;99.90;;;;;;5098705;27;20129;-68
2023/01/31 06:23:20;;;;;;;51.00;10.45;;;5.00;99.90;;;;;;5103012;27;20042;-67
2023/01/31 06:25:50;;;;;;;45.97;10.10;;;5.10;99.90;;;;;;5104350;27;20038;-68
2023/01/31 06:28:16;;;;;;;44.55;10.00;;;5.10;99.90;;;;;;5107106;27;20477;-68
2023/01/31 06:30:42;;;;;;;44.97;9.52;;;5.10;99.90;;;;;;5108678;27;20038;-68
2023/01/31 06:33:08;;;;;;;40.30;9.77;;;5.20;99.90;;;;;;5107949;27;20027;-66
2023/01/31 06:35:34;;;;;;;47.65;10.85;;;5.20;99.90;;;;;;5111404;27;20143;-68
2023/01/31 06:38:00;;;;;;;41.15;8.63;;;5.20;99.90;;;;;;5107063;27;21031;-66
2023/01/31 06:40:25;;;;;;;45.60;9.27;;;5.20;99.90;;;;;;5110830;27;20046;-67
2023/01/31 06:42:51;;;;;;;44.15;8.98;;;5.20;99.90;;;;;;5103257;27;20058;-68
2023/01/31 06:45:17;;;;;;;48.17;10.10;;;5.30;99.90;;;;;;5101486;27;20042;-67
2023/01/31 06:47:45;;;;;;;47.55;9.02;;;5.30;99.90;;;;;;5102086;27;20039;-66
2023/01/31 06:50:11;;;;;;;39.97;8.60;;;5.30;99.90;;;;;;5100283;27;20039;-66
2023/01/31 06:52:38;;;;;;;42.17;9.57;;;5.40;99.90;;;;;;5121539;27;20035;-66
2023/01/31 06:55:05;;;;;;;36.22;8.80;;;5.40;99.90;;;;;;5107556;27;20039;-66
2023/01/31 06:57:30;;;;;;;42.72;8.68;;;5.40;99.90;;;;;;5104904;27;20035;-68
2023/01/31 06:59:56;;;;;;;43.05;8.55;;;5.40;99.90;;;;;;5108744;27;20278;-66
2023/01/31 07:02:21;;;;;;;40.78;7.20;;;5.50;99.90;;;;;;5109086;27;20054;-65
2023/01/31 07:04:47;;;;;;;43.97;8.45;;;5.60;99.90;;;;;;5116030;27;20047;-65
2023/01/31 07:07:12;;;;;;;39.95;7.93;;;5.50;99.90;;;;;;5116960;27;20104;-64
2023/01/31 07:09:38;;;;;;;40.63;8.25;;;5.60;99.90;;;;;;5108684;27;20492;-65
2023/01/31 07:12:04;;;;;;;36.17;8.57;;;5.60;99.90;;;;;;5107178;27;20120;-65
2023/01/31 07:14:29;;;;;;;36.80;8.18;;;5.60;99.90;;;;;;5108429;27;20031;-64
2023/01/31 07:16:55;;;;;;;45.63;7.47;;;5.70;99.90;;;;;;5107785;27;20070;-65
2023/01/31 07:19:21;;;;;;;38.42;8.55;;;5.60;99.90;;;;;;5102351;27;21553;-63
2023/01/31 07:21:48;;;;;;;34.05;9.05;;;5.70;99.90;;;;;;5099448;27;20043;-65
2023/01/31 07:24:14;;;;;;;49.22;9.63;;;5.70;99.90;;;;;;5111350;27;20412;-62
2023/01/31 07:26:40;;;;;;;35.67;9.93;;;5.70;99.90;;;;;;5124171;27;20104;-65
2023/01/31 07:29:06;;;;;;;52.20;11.48;;;5.80;99.90;;;;;;5109655;27;20106;-63
2023/01/31 07:31:32;;;;;;;48.45;12.13;;;5.70;99.90;;;;;;5092637;27;20154;-64
2023/01/31 07:33:59;;;;;;;57.03;13.13;;;5.70;99.90;;;;;;5087929;27;20038;-66
2023/01/31 07:36:25;;;;;;;60.83;13.88;;;5.70;99.90;;;;;;5105153;27;20429;-64
2023/01/31 07:38:55;;;;;;;51.90;12.05;;;5.70;99.90;;;;;;5106141;27;20057;-63
2023/01/31 07:41:25;;;;;;;53.42;12.50;;;5.70;99.90;;;;;;5103679;27;20039;-64
2023/01/31 07:43:51;;;;;;;46.85;11.05;;;5.70;99.90;;;;;;5109135;27;20598;-64
2023/01/31 07:46:17;;;;;;;50.92;12.77;;;5.80;99.90;;;;;;5108827;27;20138;-64
2023/01/31 07:48:42;;;;;;;44.50;11.65;;;5.70;99.90;;;;;;5102129;27;20084;-65
2023/01/31 07:51:08;;;;;;;42.85;10.60;;;5.80;99.90;;;;;;5108802;27;20057;-64
2023/01/31 07:53:40;;;;;;;51.25;12.60;;;5.70;99.90;;;;;;5106218;27;20035;-64
2023/01/31 07:56:15;;;;;;;56.75;13.38;;;5.70;99.90;;;;;;5107412;27;20504;-65
2023/01/31 07:58:42;;;;;;;57.85;13.93;;;5.70;99.90;;;;;;5106782;27;20043;-64
2023/01/31 08:03:57;;;;;;;59.00;13.90;;;5.80;99.90;;;;;;5108706;27;20051;-65
2023/01/31 08:06:23;;;;;;;45.35;12.48;;;5.80;99.90;;;;;;5109150;27;20039;-65
2023/01/31 08:08:49;;;;;;;47.53;11.60;;;5.80;99.90;;;;;;5111938;27;20269;-65
2023/01/31 08:11:14;;;;;;;46.13;10.57;;;5.90;99.90;;;;;;5096295;27;20122;-66
2023/01/31 08:13:40;;;;;;;42.78;9.00;;;5.90;99.90;;;;;;5105928;28;20440;-65
2023/01/31 08:16:08;;;;;;;32.55;6.72;;;5.90;99.90;;;;;;5107947;27;20072;-65
2023/01/31 08:18:34;;;;;;;36.25;7.38;;;5.90;99.90;;;;;;5109767;27;20496;-63
2023/01/31 08:21:00;;;;;;;30.58;5.28;;;6.00;99.90;;;;;;5110564;28;20141;-65
2023/01/31 08:23:27;;;;;;;30.45;6.18;;;6.00;99.90;;;;;;5108996;27;20552;-64
2023/01/31 08:26:01;;;;;;;34.08;6.82;;;6.10;99.90;;;;;;5131018;27;20042;-66
2023/01/31 08:28:27;;;;;;;42.40;8.68;;;6.00;99.90;;;;;;5108634;27;20074;-66
2023/01/31 08:30:53;;;;;;;27.75;6.68;;;6.10;99.90;;;;;;5110799;27;20489;-65
2023/01/31 08:33:18;;;;;;;33.45;6.60;;;6.20;99.90;;;;;;5106909;27;20042;-65
2023/01/31 08:35:44;;;;;;;29.10;5.80;;;6.10;99.90;;;;;;5106505;27;20126;-64
2023/01/31 08:38:09;;;;;;;23.88;5.97;;;6.20;99.90;;;;;;5100428;27;20046;-63
2023/01/31 08:40:35;;;;;;;29.00;5.05;;;6.20;99.90;;;;;;5104936;27;20103;-64
2023/01/31 08:43:00;;;;;;;29.13;6.20;;;6.10;99.90;;;;;;5118050;27;20511;-64
2023/01/31 08:45:27;;;;;;;26.52;5.20;;;6.20;99.90;;;;;;5107209;27;20035;-65
2023/01/31 08:47:58;;;;;;;42.00;6.00;;;6.20;99.90;;;;;;5103869;27;20048;-64
2023/01/31 08:50:26;;;;;;;28.05;4.97;;;6.20;99.90;;;;;;5103377;27;20088;-65
2023/01/31 08:52:53;;;;;;;31.95;5.80;;;6.20;99.90;;;;;;5083648;27;20039;-64
2023/01/31 08:55:19;;;;;;;27.65;5.07;;;6.30;99.90;;;;;;5106714;27;20470;-64
2023/01/31 08:57:45;;;;;;;27.83;5.57;;;6.30;99.90;;;;;;5118903;27;20046;-63
2023/01/31 09:00:11;;;;;;;27.00;5.20;;;6.30;99.90;;;;;;5119048;27;20073;-65
2023/01/31 09:02:36;;;;;;;29.55;6.03;;;6.30;99.90;;;;;;5108307;27;20031;-64
2023/01/31 09:05:02;;;;;;;36.53;5.97;;;6.30;99.90;;;;;;5125568;27;20102;-64
2023/01/31 09:07:28;;;;;;;26.63;5.03;;;6.30;99.90;;;;;;5107290;27;20443;-64
2023/01/31 09:09:53;;;;;;;32.17;5.43;;;6.40;99.90;;;;;;5107300;27;20074;-64
2023/01/31 09:12:19;;;;;;;29.38;5.07;;;6.40;99.90;;;;;;5107213;27;20043;-64
2023/01/31 09:14:44;;;;;;;26.10;4.22;;;6.50;99.90;;;;;;5104898;27;20462;-64
2023/01/31 09:17:10;;;;;;;27.30;4.57;;;6.60;99.90;;;;;;5107336;27;20050;-64
2023/01/31 09:19:36;;;;;;;18.67;3.88;;;6.50;99.90;;;;;;5107950;27;20035;-64
2023/01/31 09:22:02;;;;;;;23.23;4.35;;;6.60;99.90;;;;;;5099445;27;20063;-64
2023/01/31 09:24:28;;;;;;;32.67;4.43;;;6.60;99.90;;;;;;5107960;27;20039;-65
2023/01/31 09:26:55;;;;;;;33.42;4.65;;;6.60;99.90;;;;;;5111613;27;20477;-65
2023/01/31 09:29:20;;;;;;;22.52;4.70;;;6.70;99.90;;;;;;5108938;27;20043;-64
2023/01/31 09:31:50;;;;;;;25.55;4.70;;;6.70;99.90;;;;;;5103726;27;20048;-64
2023/01/31 09:34:15;;;;;;;27.25;5.65;;;6.80;99.90;;;;;;5124443;27;20485;-64
2023/01/31 09:36:41;;;;;;;19.58;4.22;;;6.80;99.90;;;;;;5110449;27;20034;-64
2023/01/31 09:39:07;;;;;;;30.70;5.55;;;6.80;99.90;;;;;;5104342;27;20147;-63
2023/01/31 09:41:35;;;;;;;33.40;4.95;;;6.80;99.90;;;;;;5107128;27;20095;-64
2023/01/31 09:44:20;;;;;;;23.17;4.53;;;6.90;99.90;;;;;;5105511;28;20072;-64
2023/01/31 09:47:11;;;;;;;22.95;5.05;;;7.00;99.90;;;;;;5103168;27;20081;-64
2023/01/31 09:49:51;;;;;;;27.67;4.88;;;7.00;99.90;;;;;;5090811;28;20088;-62
2023/01/31 09:52:17;;;;;;;27.77;4.50;;;7.10;99.90;;;;;;5104517;28;20046;-65
2023/01/31 09:54:44;;;;;;;30.75;5.60;;;7.20;99.90;;;;;;5108243;28;20031;-65
2023/01/31 09:57:09;;;;;;;21.25;5.00;;;7.10;99.90;;;;;;5112807;27;20077;-64
2023/01/31 09:59:56;;;;;;;30.80;6.28;;;7.10;99.90;;;;;;5126539;27;20066;-63
2023/01/31 10:02:27;;;;;;;34.65;7.75;;;7.10;99.90;;;;;;5105888;27;20043;-64
2023/01/31 10:05:20;;;;;;;35.15;7.10;;;7.10;99.90;;;;;;5107446;27;20035;-64
2023/01/31 10:08:03;;;;;;;32.13;7.22;;;7.00;99.90;;;;;;5116930;27;20069;-66
2023/01/31 10:11:00;;;;;;;33.17;7.05;;;7.20;99.90;;;;;;5096507;28;20047;-64
2023/01/31 10:13:35;;;;;;;39.25;6.70;;;7.10;99.90;;;;;;5031683;27;20483;-64
2023/01/31 10:16:10;;;;;;;30.70;6.82;;;7.10;99.90;;;;;;5116127;27;20345;-64
2023/01/31 10:18:42;;;;;;;24.42;5.80;;;7.10;99.90;;;;;;5113913;27;20043;-65
2023/01/31 10:21:32;;;;;;;24.48;5.07;;;7.10;99.90;;;;;;5103459;27;20046;-64
2023/01/31 10:24:27;;;;;;;27.27;6.40;;;7.20;99.90;;;;;;5107787;27;20046;-65
2023/01/31 10:26:59;;;;;;;24.55;5.28;;;7.20;99.90;;;;;;5111713;28;20065;-63
2023/01/31 10:29:31;;;;;;;29.93;6.40;;;7.20;99.90;;;;;;5096915;27;20046;-64
2023/01/31 10:32:01;;;;;;;36.17;6.28;;;7.20;99.90;;;;;;5112632;27;20039;-64
2023/01/31 10:34:26;;;;;;;32.50;7.85;;;7.10;99.90;;;;;;5114751;27;20374;-63
2023/01/31 10:37:08;;;;;;;42.08;7.95;;;7.10;99.90;;;;;;5112893;27;20047;-63
2023/01/31 10:40:10;;;;;;;39.15;8.32;;;7.20;99.90;;;;;;5114732;27;20054;-65
2023/01/31 10:42:38;;;;;;;22.30;4.88;;;7.20;99.90;;;;;;5110645;27;20048;-63
2023/01/31 10:45:29;;;;;;;29.92;5.28;;;7.20;99.90;;;;;;5112322;28;20444;-64
2023/01/31 10:48:13;;;;;;;30.75;4.88;;;7.20;99.90;;;;;;5104690;27;20131;-63
2023/01/31 10:50:56;;;;;;;39.47;6.95;;;7.30;99.90;;;;;;5106861;28;20082;-63
2023/01/31 10:53:28;;;;;;;34.13;6.57;;;7.20;99.90;;;;;;5096277;28;20032;-64
2023/01/31 10:56:05;;;;;;;35.92;6.95;;;7.20;99.90;;;;;;5097124;28;20075;-64
2023/01/31 10:58:31;;;;;;;34.28;6.10;;;7.20;99.90;;;;;;5114284;27;20149;-64
2023/01/31 11:00:57;;;;;;;28.88;6.70;;;7.10;99.90;;;;;;5127990;27;20066;-64
2023/01/31 11:03:23;;;;;;;35.15;7.03;;;7.10;99.90;;;;;;5112701;27;20486;-65
2023/01/31 11:05:55;;;;;;;36.05;7.40;;;7.10;99.90;;;;;;5113758;27;20119;-64
2023/01/31 11:08:41;;;;;;;39.53;8.32;;;7.10;99.90;;;;;;5110165;27;20087;-65
2023/01/31 11:11:20;;;;;;;41.35;8.45;;;7.10;99.90;;;;;;5111079;27;20048;-66
2023/01/31 11:14:04;;;;;;;43.40;8.57;;;7.20;99.90;;;;;;5104344;27;20043;-64
2023/01/31 11:16:35;;;;;;;34.53;8.02;;;7.20;99.90;;;;;;5108182;27;20057;-65
2023/01/31 11:19:04;;;;;;;37.53;7.68;;;7.20;99.90;;;;;;5109584;27;20088;-64
2023/01/31 11:21:33;;;;;;;39.28;8.10;;;7.20;99.90;;;;;;5103673;27;20492;-65
2023/01/31 11:24:05;;;;;;;43.80;7.93;;;7.20;99.90;;;;;;5110050;27;20047;-65
2023/01/31 11:26:37;;;;;;;43.42;7.75;;;7.20;99.90;;;;;;5113354;27;20054;-64
2023/01/31 11:29:16;;;;;;;48.75;7.05;;;7.20;99.90;;;;;;5106237;27;20050;-63
2023/01/31 11:31:46;;;;;;;30.67;6.65;;;7.10;99.90;;;;;;5105601;27;20040;-65
2023/01/31 11:34:24;;;;;;;33.17;6.10;;;7.20;99.90;;;;;;5097310;27;20035;-64
2023/01/31 11:36:50;;;;;;;27.77;5.18;;;7.20;99.90;;;;;;5104673;27;20176;-65
2023/01/31 11:39:31;;;;;;;46.20;6.60;;;7.20;99.90;;;;;;5101399;27;20113;-64
2023/01/31 11:42:04;;;;;;;31.42;5.85;;;7.30;99.90;;;;;;5104786;27;20039;-64
2023/01/31 11:44:29;;;;;;;34.40;5.90;;;7.40;99.90;;;;;;5122574;27;20039;-64
2023/01/31 11:47:03;;;;;;;38.15;6.25;;;7.30;99.90;;;;;;5126235;27;20096;-64
2023/01/31 11:49:39;;;;;;;45.40;6.05;;;7.40;99.90;;;;;;5103543;27;20069;-65
2023/01/31 11:52:26;;;;;;;23.90;3.97;;;7.40;99.90;;;;;;5107480;27;20493;-65
2023/01/31 11:54:56;;;;;;;34.92;5.82;;;7.40;99.90;;;;;;5121384;27;20039;-64
2023/01/31 11:57:25;;;;;;;20.92;4.72;;;7.50;99.90;;;;;;5107197;27;20122;-64
2023/01/31 11:59:54;;;;;;;20.27;4.45;;;7.50;99.90;;;;;;5110201;27;20062;-63
2023/01/31 12:02:27;;;;;;;27.05;5.43;;;7.50;99.90;;;;;;5110507;27;20047;-64
2023/01/31 12:04:54;;;;;;;24.23;5.45;;;7.60;99.90;;;;;;5103463;27;20575;-65
2023/01/31 12:07:27;;;;;;;22.48;5.22;;;7.60;99.90;;;;;;5113886;27;20124;-65
2023/01/31 12:09:53;;;;;;;28.05;5.65;;;7.60;99.90;;;;;;5111029;27;20073;-67
2023/01/31 12:12:22;;;;;;;34.78;4.72;;;7.70;99.90;;;;;;5109641;28;20450;-66
2023/01/31 12:14:48;;;;;;;26.70;6.35;;;7.80;99.90;;;;;;5116079;27;20050;-65
2023/01/31 12:17:16;;;;;;;34.50;6.32;;;7.90;99.90;;;;;;5106830;28;20039;-65
2023/01/31 12:20:12;;;;;;;33.80;6.10;;;7.90;99.90;;;;;;5110256;27;20047;-65
2023/01/31 12:23:11;;;;;;;28.55;5.53;;;7.90;99.90;;;;;;5109363;27;20125;-66
2023/01/31 12:25:39;;;;;;;20.08;5.10;;;8.00;99.90;;;;;;5098607;27;20082;-65
2023/01/31 12:28:44;;;;;;;31.52;5.55;;;8.00;99.90;;;;;;5107793;27;20039;-66
2023/01/31 12:31:35;;;;;;;32.70;7.00;;;8.00;99.90;;;;;;5109741;28;20036;-65
2023/01/31 12:34:23;;;;;;;32.63;6.47;;;8.10;99.90;;;;;;5111935;27;20160;-66
2023/01/31 12:37:34;;;;;;;39.15;8.20;;;8.20;99.90;;;;;;5113869;27;20039;-64
2023/01/31 12:39:59;;;;;;;31.50;6.85;;;8.20;99.90;;;;;;5115811;27;20453;-63
2023/01/31 12:42:45;;;;;;;25.27;6.43;;;8.20;99.90;;;;;;5112644;27;20089;-65
2023/01/31 12:45:38;;;;;;;37.22;5.32;;;8.20;99.90;;;;;;5113076;27;20484;-64
2023/01/31 12:48:27;;;;;;;27.10;5.22;;;8.30;99.90;;;;;;5109900;27;20055;-66
2023/01/31 12:51:30;;;;;;;23.10;4.93;;;8.30;99.90;;;;;;5093690;28;20043;-64
2023/01/31 12:53:58;;;;;;;;;;;8.30;99.90;;;;;;5112010;27;20553;-65
2023/01/31 12:57:02;;;;;;;23.92;4.68;;;8.40;99.90;;;;;;5108166;27;20232;-65
2023/01/31 12:59:33;;;;;;;;;;;8.50;99.90;;;;;;5110890;27;20035;-64
2023/01/31 13:02:24;;;;;;;29.65;4.93;;;8.50;99.90;;;;;;5099787;28;20006;-64
2023/01/31 13:05:00;;;;;;;31.80;4.60;;;8.60;99.90;;;;;;5096713;27;20114;-65
2023/01/31 13:07:50;;;;;;;24.60;4.15;;;8.70;99.90;;;;;;5107873;27;20035;-64
2023/01/31 13:10:37;;;;;;;16.63;3.40;;;8.80;99.90;;;;;;5107129;27;20055;-66
2023/01/31 13:13:05;;;;;;;21.20;4.50;;;8.90;99.90;;;;;;5101011;27;20417;-67